Current Conditions
Gedeeltelijk Bewolkt



Rainfall
0.00 (mm) - 0.00 (in)
Pressure
1015.92 (hPa) - 30 (inHG)
Visibility

10.0 (km) - 6.2 (miles)
   Temperature
18  °C
64°F
12  °C
Dewpoint
68  %
 Humidity
   Wind Speed
23  km/h
12  kts
14  mph
6.3  m/s
   Wind Direction
 220°
South West
   Airport Data
EHLE
Location Lelystad Airport 20 km (12.43 mi)
Metar :EHLE 010955Z AUTO 22012KT 190V250 9999 FEW023 SCT040 18/12 Q1016 TEMPO -SHRA FEW020CB
Fri 1st July 11:55 am
   Raw Metar Info
Raw METAR is the most common format in the world for the transmission of observational weather data. It is highly standardized through the International Civil Aviation Organization (ICAO), which allows it to be understood throughout most of the world.
   API Info
Data Provided by
https://www.checkwx.com/weather/EHLE
   © Info
CSS/SVG/PHP scripts were developed by weather34.com for use in the weather34 template © 2015-2022

Guide Info provided by Metar-Wikipedia